Flight Track Log - Related Links

Times and Time Zones

All times are in EDT time to prevent confusion due to time zone crossing. See the RLI811 flight status page for this flight to view local times or setup timezone preferences in your user account.

Time Position Orientation Groundspeed Altitude Reporting Facility
EDT Latitude Longitude Course Direction KTS MPH feet Rate Location/Type
Sun 01:32:52 PM 43.0394 -73.7100 182° South 138 159 7,800  Level Boston Center
Sun 01:34:05 PM 42.9997 -73.7206 191° South 116 133 8,600 343 Climbing Boston Center
Sun 01:35:12 PM 42.9558 -73.7367 195° South 149 171 8,600  Level Boston Center
Sun 01:36:13 PM 42.9200 -73.7697 214° Southwest 162 186 8,600  Level Boston Center
Sun 01:37:13 PM 42.8800 -73.7972 207° Southwest 161 185 8,600 -99 Level Boston Center
Sun 01:38:00 PM 42.9774 -73.6263 182° South  Level Estimated
Sun 01:38:14 PM 42.8419 -73.8333 215° Southwest 161 185 8,400  Level Boston Center
Sun 01:39:15 PM 42.8019 -73.8664 211° Southwest 169 194 8,100 -218 Descending Boston Center
Sun 01:40:04 PM 42.7642 -73.8881 203° Southwest 170 196 8,000 -207 Descending Boston Center
Sun 01:41:11 PM 42.7222 -73.9211 210° Southwest 168 193 7,700 -281 Descending Boston Center
Sun 01:42:12 PM 42.6800 -73.9567 212° Southwest 176 203 7,400 -446 Descending Boston Center
Sun 01:43:12 PM 42.6461 -74.0011 224° Southwest 180 207 6,800 -645 Descending Boston Center
Sun 01:44:13 PM 42.5997 -74.0364 209° Southwest 186 214 6,100 -787 Descending Boston Center
Sun 01:45:14 PM 42.5594 -74.0806 219° Southwest 193 222 5,200 -738 Descending Boston Center
Sun 01:46:15 PM 42.5153 -74.1161 211° Southwest 202 232 4,600 -295 Descending Boston Center
Sun 01:47:16 PM 42.4631 -74.1231 186° South 194 223 4,600 49 Level Boston Center
Sun 01:48:17 PM 42.4086 -74.1272 183° South 175 201 4,700  Climbing Boston Center
Sun 01:49:18 PM 42.3586 -74.1372 188° South 184 212 4,600 -47 Descending Boston Center
Sun 01:50:25 PM 42.3042 -74.1442 185° South 189 217 4,600 -47 Level Boston Center
Sun 01:51:26 PM 42.2481 -74.1453 181° South 187 215 4,500 -52 Descending Boston Center
Sun 01:52:21 PM 42.2000 -74.1469 181° South 187 215 4,500 -52 Level Boston Center
Sun 01:53:22 PM 42.1497 -74.1567 188° South 179 206 4,400 -224 Descending Boston Center
Sun 01:54:35 PM 42.0892 -74.1606 183° South 186 214 4,000 -329 Descending Boston Center
Sun 01:56:00 PM 42.0247 -74.1316 163° South  Level Estimated
Sun 02:03:00 PM 41.7062 -73.9891 166° South  Level Estimated
Sun 02:04:00 PM 41.6654 -73.9554 148° Southeast  Level FlightAware Approximate
Sun 02:05:00 PM 41.6246 -73.9218 148° Southeast  Level FlightAware Approximate
Sun 02:06:00 PM 41.5837 -73.8883 148° Southeast  Level FlightAware Approximate
Sun 02:07:00 PM 41.5428 -73.8548 148° Southeast  Level FlightAware Approximate
Sun 02:08:00 PM 41.4961 -73.8402 169° South  Level Estimated
Sun 02:09:00 PM 41.4495 -73.8254 167° South  Level FlightAware Approximate
Sun 02:10:00 PM 41.4028 -73.8106 167° South  Level FlightAware Approximate
Sun 02:11:00 PM 41.3562 -73.7958 167° South  Level FlightAware Approximate
Sun 02:12:00 PM 41.3094 -73.7815 168° South  Level Estimated
Sun 02:13:00 PM 41.2629 -73.7658 166° South  Level FlightAware Approximate
Sun 02:14:00 PM 41.2164 -73.7502 166° South  Level FlightAware Approximate
Sun 02:15:00 PM 41.1699 -73.7346 166° South  Level FlightAware Approximate
Sun 02:16:00 PM 41.1229 -73.7222 166° South  Level Estimated
Sun 02:17:00 PM 41.0758 -73.7099 166° South  Level Estimated
Sun 02:18:00 PM 41.0667 -73.7000 166° South  Level FlightAware Approximate
Sun 02:19:00 PM 41.0669 -73.7076 166° South  Level Estimated
Sun 02:20:00 PM 41.0667 -73.7000 166° South  Level FlightAware Approximate
Sun 02:21:00 PM 41.0669 -73.7076 166° South  Level Estimated
Sun 02:22:00 PM 41.0667 -73.7000 166° South  Level FlightAware Approximate
Sun 02:23:00 PM 41.0669 -73.7076 166° South  Level Estimated
Sun 02:24:00 PM 41.0667 -73.7000 166° South  Level FlightAware Approximate
Sun 02:25:00 PM 41.0669 -73.7076 166° South  Level Estimated
Sun 02:26:00 PM 41.0667 -73.7000 166° South  Level FlightAware Approximate
Sun 02:27:00 PM 41.0669 -73.7076 166° South  Level Estimated
Sun 02:28:00 PM 41.0667 -73.7000 166° South  Level FlightAware Approximate
Sun 02:29:00 PM 41.0669 -73.7076 166° South  Level Estimated
Sun 02:30:00 PM 41.0667 -73.7000 166° South  Level FlightAware Approximate
Sun 02:31:00 PM 41.0669 -73.7076 166° South  Level Estimated
Sun 02:32:00 PM 41.0667 -73.7000 166° South  Level FlightAware Approximate
Sun 02:33:00 PM 41.0669 -73.7076 166° South  Level Estimated
Sun 02:34:00 PM 41.0667 -73.7000 166° South  Level FlightAware Approximate

Login

Don't have an account? Register now (free) for customized features, flight alerts, and more!